Flight Track Log - Related Links

Times and Time Zones

All times are in EDT time to prevent confusion due to time zone crossing. See the N777NC flight status page for this flight to view local times or setup timezone preferences in your user account.

Time Position Orientation Groundspeed Altitude Reporting Facility
EDT Latitude Longitude Course Direction KTS MPH feet Rate Location/Type
Sun 12:20:52 PM 33.6333 -84.4667 54° Northeast 173 199 2,200  Level Atlanta TRACON
Sun 12:21:52 PM 33.6000 -84.5333 239° Southwest 271 312 4,200 2,300 Climbing Atlanta TRACON
Sun 12:22:52 PM 33.5333 -84.5833 212° Southwest 285 328 6,800 2,700 Climbing Atlanta TRACON
Sun 12:23:00 PM 33.7734 -84.0404 67° East  Level FlightAware Approximate
Sun 12:23:52 PM 33.4667 -84.5333 148° Southeast 297 342 9,600  Level Atlanta TRACON
Sun 12:24:00 PM 33.8167 -83.9017 90° East  Level FlightAware Approximate
Sun 12:24:57 PM 33.4408 -84.4322 107° East 323 372 11,800  Level Atlanta Center
Sun 12:25:00 PM 33.8775 -83.7822 54° Northeast  Level FlightAware Approximate
Sun 12:25:57 PM 33.4600 -84.3228 78° East 347 399 13,300  Level Atlanta Center
Sun 12:26:00 PM 33.9466 -83.6689 54° Northeast  Level FlightAware Approximate
Sun 12:26:57 PM 33.5247 -84.2158 54° Northeast 369 425 14,100  Level Atlanta Center
Sun 12:27:57 PM 33.6022 -84.1111 48° Northeast 405 466 14,600 1,700 Climbing Atlanta Center
Sun 12:28:57 PM 33.6814 -84.0139 46° Northeast 410 472 17,500 2,150 Climbing Atlanta Center
Sun 12:29:57 PM 33.7567 -83.9089 49° Northeast 404 465 18,900 1,400 Climbing Atlanta Center
Sun 12:30:57 PM 33.8233 -83.7889 56° Northeast 422 486 20,300 1,400 Climbing Atlanta Center
Sun 12:31:57 PM 33.8917 -83.6708 55° Northeast 432 497 21,700 1,600 Climbing Atlanta Center
Sun 12:32:57 PM 33.9686 -83.5478 53° Northeast 447 514 23,500 1,650 Climbing Atlanta Center
Sun 12:33:57 PM 34.0433 -83.4547 46° Northeast 440 506 25,000 1,200 Climbing Atlanta Center
Sun 12:34:57 PM 34.1303 -83.3436 47° Northeast 440 506 25,900 900 Climbing Atlanta Center
Sun 12:35:57 PM 34.2131 -83.2250 50° Northeast 454 522 26,800 900 Climbing Atlanta Center
Sun 12:36:57 PM 34.3000 -83.1008 50° Northeast 472 543 27,700 600 Climbing Atlanta Center
Sun 12:37:57 PM 34.3908 -82.9792 48° Northeast 472 543 28,000 150 Climbing Atlanta Center
Sun 12:38:57 PM 34.4772 -82.8469 52° Northeast 491 565 28,000 100 Level Atlanta Center
Sun 12:39:57 PM 34.5761 -82.7194 47° Northeast 503 579 28,200 450 Climbing Atlanta Center
Sun 12:40:57 PM 34.6683 -82.5842 50° Northeast 489 563 28,900 400 Climbing Atlanta Center
Sun 12:41:57 PM 34.7522 -82.4461 53° Northeast 489 563 29,000 50 Climbing Atlanta Center
Sun 12:42:57 PM 34.8297 -82.3056 56° Northeast 494 568 29,000  Level Atlanta Center
Sun 12:43:57 PM 34.8922 -82.1522 64° Northeast 494 568 29,000  Level Atlanta Center
Sun 12:44:57 PM 34.9650 -82.0161 57° Northeast 489 563 29,000  Level Atlanta Center
Sun 12:45:57 PM 35.0656 -81.9047 42° Northeast 472 543 29,000 -750 Level Atlanta Center
Sun 12:46:57 PM 35.1872 -81.8356 25° Northeast 472 543 27,500 -2,100 Descending Atlanta Center
Sun 12:47:57 PM 35.3075 -81.7864 18° North 460 529 24,800 -1,800 Descending Atlanta Center
Sun 12:48:57 PM 35.4211 -81.7247 24° Northeast 448 516 23,900 -850 Descending Atlanta Center
Sun 12:49:57 PM 35.5256 -81.6300 36° Northeast 448 516 23,100 -650 Descending Atlanta Center
Sun 12:50:57 PM 35.6236 -81.5275 40° Northeast 454 522 22,600 -800 Descending Atlanta Center
Sun 12:51:57 PM 35.7114 -81.4353 40° Northeast 464 534 21,500 -800 Descending Atlanta Center
Sun 12:52:57 PM 35.8075 -81.3347 40° Northeast 459 528 21,000 -250 Descending Atlanta Center
Sun 12:53:57 PM 35.8333 -81.1881 78° East 390 449 21,000 -100 Level Atlanta Center
Sun 12:54:57 PM 35.8403 -81.0469 86° East 395 455 20,800 -1,000 Descending Atlanta Center
Sun 12:55:57 PM 35.8494 -80.9108 85° East 402 463 19,000 -1,650 Descending Atlanta Center
Sun 12:56:57 PM 35.8692 -80.7844 79° East 388 447 17,500 -950 Descending Atlanta Center
Sun 12:57:57 PM 35.9117 -80.6647 66° East 383 441 17,100 -650 Descending Atlanta Center
Sun 12:58:57 PM 35.9483 -80.5581 67° East 377 434 16,200 -1,800 Descending Atlanta Center
Sun 12:59:57 PM 35.9803 -80.4361 72° East 377 434 13,500 -2,900 Descending Atlanta Center
Sun 01:00:57 PM 35.9975 -80.3094 80° East 372 428 10,400 -2,150 Descending Atlanta Center
Sun 01:01:57 PM 36.0192 -80.2006 76° East 350 403 9,200 -1,700 Descending Atlanta Center
Sun 01:02:57 PM 36.0856 -80.1256 42° Northeast 291 335 7,000 -1,550 Descending Atlanta Center
Sun 01:03:57 PM 36.1458 -80.0533 44° Northeast 291 335 6,100 -500 Descending Atlanta Center
Sun 01:04:57 PM 36.2039 -79.9808 45° Northeast 291 335 6,000 -250 Descending Atlanta Center
Sun 01:05:57 PM 36.2525 -79.9322 39° Northeast 265 305 5,600 -800 Descending Atlanta Center
Sun 01:06:57 PM 36.2906 -79.8917 41° Northeast 224 258 4,400 -1,200 Descending Atlanta Center
Sun 01:08:00 PM 36.1830 -79.9152 190° South  Level FlightAware Approximate
Sun 01:15:00 PM 36.1000 -79.9333 185° South  Level FlightAware Approximate
Sun 01:16:00 PM 36.1013 -79.9411 185° South  Level Estimated

Login

Don't have an account? Register now (free) for customized features, flight alerts, and more!